sensor_id;sensor_type;location;lat;lon;timestamp;P1;durP1;ratioP1;P2;durP2;ratioP2
11761;SDS011;5938;47.098;15.474;2023-03-31T00:01:14;5.00;;;3.93;;
11761;SDS011;5938;47.098;15.474;2023-03-31T00:05:18;7.90;;;5.10;;
11761;SDS011;5938;47.098;15.474;2023-03-31T00:09:22;6.33;;;5.40;;
11761;SDS011;5938;47.098;15.474;2023-03-31T00:13:25;7.97;;;4.60;;
11761;SDS011;5938;47.098;15.474;2023-03-31T00:17:32;5.67;;;4.30;;
11761;SDS011;5938;47.098;15.474;2023-03-31T00:21:35;4.30;;;3.87;;
11761;SDS011;5938;47.098;15.474;2023-03-31T00:25:43;5.30;;;4.80;;
11761;SDS011;5938;47.098;15.474;2023-03-31T00:29:46;7.50;;;4.80;;
11761;SDS011;5938;47.098;15.474;2023-03-31T00:33:52;5.80;;;4.10;;
11761;SDS011;5938;47.098;15.474;2023-03-31T00:37:56;4.93;;;4.50;;
11761;SDS011;5938;47.098;15.474;2023-03-31T00:42:00;5.73;;;4.80;;
11761;SDS011;5938;47.098;15.474;2023-03-31T00:46:12;7.20;;;4.80;;
11761;SDS011;5938;47.098;15.474;2023-03-31T00:50:23;6.10;;;4.80;;
11761;SDS011;5938;47.098;15.474;2023-03-31T00:54:30;13.07;;;5.67;;
11761;SDS011;5938;47.098;15.474;2023-03-31T00:58:36;6.33;;;5.23;;
11761;SDS011;5938;47.098;15.474;2023-03-31T01:02:45;7.00;;;6.37;;
11761;SDS011;5938;47.098;15.474;2023-03-31T01:06:55;5.73;;;5.10;;
11761;SDS011;5938;47.098;15.474;2023-03-31T01:11:04;7.80;;;5.43;;
11761;SDS011;5938;47.098;15.474;2023-03-31T01:15:12;7.00;;;5.30;;
11761;SDS011;5938;47.098;15.474;2023-03-31T01:19:17;7.70;;;5.70;;
11761;SDS011;5938;47.098;15.474;2023-03-31T01:23:37;6.73;;;5.40;;
11761;SDS011;5938;47.098;15.474;2023-03-31T01:27:57;4.67;;;4.27;;
11761;SDS011;5938;47.098;15.474;2023-03-31T01:32:25;6.23;;;5.40;;
11761;SDS011;5938;47.098;15.474;2023-03-31T01:41:49;5.40;;;4.73;;
11761;SDS011;5938;47.098;15.474;2023-03-31T01:46:01;7.10;;;5.53;;
11761;SDS011;5938;47.098;15.474;2023-03-31T01:50:14;10.07;;;5.80;;
11761;SDS011;5938;47.098;15.474;2023-03-31T01:54:27;6.67;;;4.97;;
11761;SDS011;5938;47.098;15.474;2023-03-31T01:58:42;3.97;;;3.53;;
11761;SDS011;5938;47.098;15.474;2023-03-31T02:02:53;5.23;;;4.33;;
11761;SDS011;5938;47.098;15.474;2023-03-31T02:07:02;6.40;;;4.90;;
11761;SDS011;5938;47.098;15.474;2023-03-31T02:11:13;5.43;;;4.70;;
11761;SDS011;5938;47.098;15.474;2023-03-31T02:15:20;5.87;;;4.50;;
11761;SDS011;5938;47.098;15.474;2023-03-31T02:19:28;5.63;;;4.33;;
11761;SDS011;5938;47.098;15.474;2023-03-31T02:23:37;4.33;;;3.93;;
11761;SDS011;5938;47.098;15.474;2023-03-31T02:27:40;4.90;;;4.23;;
11761;SDS011;5938;47.098;15.474;2023-03-31T02:31:47;4.10;;;3.70;;
11761;SDS011;5938;47.098;15.474;2023-03-31T02:35:55;4.90;;;3.50;;
11761;SDS011;5938;47.098;15.474;2023-03-31T02:40:01;4.30;;;3.90;;
11761;SDS011;5938;47.098;15.474;2023-03-31T02:44:09;4.87;;;3.83;;
11761;SDS011;5938;47.098;15.474;2023-03-31T02:48:16;4.03;;;3.20;;
11761;SDS011;5938;47.098;15.474;2023-03-31T02:52:26;4.63;;;3.87;;
11761;SDS011;5938;47.098;15.474;2023-03-31T02:56:46;4.30;;;3.77;;
11761;SDS011;5938;47.098;15.474;2023-03-31T03:01:05;3.73;;;2.90;;
11761;SDS011;5938;47.098;15.474;2023-03-31T03:05:22;4.33;;;3.83;;
11761;SDS011;5938;47.098;15.474;2023-03-31T03:09:39;4.40;;;4.00;;
11761;SDS011;5938;47.098;15.474;2023-03-31T03:13:57;4.43;;;4.03;;
11761;SDS011;5938;47.098;15.474;2023-03-31T03:18:09;4.73;;;4.30;;
11761;SDS011;5938;47.098;15.474;2023-03-31T03:22:14;4.73;;;4.30;;
11761;SDS011;5938;47.098;15.474;2023-03-31T03:26:17;4.47;;;4.07;;
11761;SDS011;5938;47.098;15.474;2023-03-31T03:30:25;4.97;;;3.67;;
11761;SDS011;5938;47.098;15.474;2023-03-31T03:34:28;4.40;;;4.10;;
11761;SDS011;5938;47.098;15.474;2023-03-31T03:38:33;5.50;;;4.50;;
11761;SDS011;5938;47.098;15.474;2023-03-31T03:42:37;5.60;;;4.90;;
11761;SDS011;5938;47.098;15.474;2023-03-31T03:46:40;5.20;;;4.10;;
11761;SDS011;5938;47.098;15.474;2023-03-31T03:50:43;5.50;;;4.27;;
11761;SDS011;5938;47.098;15.474;2023-03-31T03:54:48;5.43;;;4.70;;
11761;SDS011;5938;47.098;15.474;2023-03-31T03:58:52;4.50;;;4.03;;
11761;SDS011;5938;47.098;15.474;2023-03-31T04:02:55;7.53;;;5.10;;
11761;SDS011;5938;47.098;15.474;2023-03-31T04:06:59;5.40;;;4.43;;
11761;SDS011;5938;47.098;15.474;2023-03-31T04:11:04;7.77;;;5.23;;
11761;SDS011;5938;47.098;15.474;2023-03-31T04:15:18;6.40;;;5.13;;
11761;SDS011;5938;47.098;15.474;2023-03-31T04:19:22;7.23;;;4.50;;
11761;SDS011;5938;47.098;15.474;2023-03-31T04:23:26;4.70;;;3.90;;
11761;SDS011;5938;47.098;15.474;2023-03-31T04:27:31;4.13;;;3.50;;
11761;SDS011;5938;47.098;15.474;2023-03-31T04:31:35;5.43;;;4.93;;
11761;SDS011;5938;47.098;15.474;2023-03-31T04:35:43;6.37;;;4.90;;
11761;SDS011;5938;47.098;15.474;2023-03-31T04:39:53;5.03;;;4.50;;
11761;SDS011;5938;47.098;15.474;2023-03-31T04:43:58;7.13;;;5.00;;
11761;SDS011;5938;47.098;15.474;2023-03-31T04:48:01;6.07;;;4.40;;
11761;SDS011;5938;47.098;15.474;2023-03-31T04:52:05;6.90;;;5.03;;
11761;SDS011;5938;47.098;15.474;2023-03-31T04:56:08;9.03;;;5.17;;
11761;SDS011;5938;47.098;15.474;2023-03-31T05:00:14;14.10;;;10.00;;
11761;SDS011;5938;47.098;15.474;2023-03-31T05:04:19;10.80;;;6.90;;
11761;SDS011;5938;47.098;15.474;2023-03-31T05:08:23;8.30;;;6.30;;
11761;SDS011;5938;47.098;15.474;2023-03-31T05:12:27;5.97;;;4.67;;
11761;SDS011;5938;47.098;15.474;2023-03-31T05:16:32;8.40;;;5.00;;
11761;SDS011;5938;47.098;15.474;2023-03-31T05:20:36;6.07;;;5.50;;
11761;SDS011;5938;47.098;15.474;2023-03-31T05:24:40;5.30;;;4.80;;
11761;SDS011;5938;47.098;15.474;2023-03-31T05:28:44;7.70;;;5.93;;
11761;SDS011;5938;47.098;15.474;2023-03-31T05:32:49;7.40;;;6.67;;
11761;SDS011;5938;47.098;15.474;2023-03-31T05:36:53;13.30;;;8.73;;
11761;SDS011;5938;47.098;15.474;2023-03-31T05:40:56;9.77;;;8.87;;
11761;SDS011;5938;47.098;15.474;2023-03-31T05:44:59;9.10;;;8.30;;
11761;SDS011;5938;47.098;15.474;2023-03-31T05:49:05;10.50;;;7.27;;
11761;SDS011;5938;47.098;15.474;2023-03-31T05:53:08;9.17;;;6.40;;
11761;SDS011;5938;47.098;15.474;2023-03-31T05:57:12;8.37;;;6.87;;
11761;SDS011;5938;47.098;15.474;2023-03-31T06:01:16;10.30;;;7.10;;
11761;SDS011;5938;47.098;15.474;2023-03-31T06:05:24;8.13;;;7.33;;
11761;SDS011;5938;47.098;15.474;2023-03-31T06:09:28;9.77;;;7.60;;
11761;SDS011;5938;47.098;15.474;2023-03-31T06:13:32;8.73;;;7.67;;
11761;SDS011;5938;47.098;15.474;2023-03-31T06:17:36;10.53;;;8.13;;
11761;SDS011;5938;47.098;15.474;2023-03-31T06:21:41;10.67;;;8.00;;
11761;SDS011;5938;47.098;15.474;2023-03-31T06:25:44;9.00;;;7.40;;
11761;SDS011;5938;47.098;15.474;2023-03-31T06:29:58;12.00;;;7.63;;
11761;SDS011;5938;47.098;15.474;2023-03-31T06:34:01;10.33;;;7.50;;
11761;SDS011;5938;47.098;15.474;2023-03-31T06:38:07;9.50;;;7.13;;
11761;SDS011;5938;47.098;15.474;2023-03-31T06:42:11;13.30;;;9.30;;
11761;SDS011;5938;47.098;15.474;2023-03-31T06:46:15;11.47;;;8.83;;
11761;SDS011;5938;47.098;15.474;2023-03-31T06:50:19;14.43;;;9.23;;
11761;SDS011;5938;47.098;15.474;2023-03-31T06:54:24;11.33;;;9.87;;
11761;SDS011;5938;47.098;15.474;2023-03-31T06:58:27;12.73;;;9.80;;
11761;SDS011;5938;47.098;15.474;2023-03-31T07:02:32;9.40;;;8.27;;
11761;SDS011;5938;47.098;15.474;2023-03-31T07:06:35;9.97;;;8.90;;
11761;SDS011;5938;47.098;15.474;2023-03-31T07:10:40;13.20;;;8.93;;
11761;SDS011;5938;47.098;15.474;2023-03-31T07:14:44;13.70;;;9.10;;
11761;SDS011;5938;47.098;15.474;2023-03-31T07:18:47;12.17;;;9.77;;
11761;SDS011;5938;47.098;15.474;2023-03-31T07:22:55;11.33;;;9.10;;
11761;SDS011;5938;47.098;15.474;2023-03-31T07:27:00;10.23;;;9.03;;
11761;SDS011;5938;47.098;15.474;2023-03-31T07:31:09;6.30;;;4.97;;
11761;SDS011;5938;47.098;15.474;2023-03-31T07:35:15;5.20;;;3.63;;
11761;SDS011;5938;47.098;15.474;2023-03-31T07:39:19;5.50;;;4.87;;
11761;SDS011;5938;47.098;15.474;2023-03-31T07:43:25;5.57;;;4.57;;
11761;SDS011;5938;47.098;15.474;2023-03-31T07:47:28;5.30;;;4.90;;
11761;SDS011;5938;47.098;15.474;2023-03-31T07:51:32;4.17;;;3.83;;
11761;SDS011;5938;47.098;15.474;2023-03-31T07:55:36;14.73;;;4.90;;
11761;SDS011;5938;47.098;15.474;2023-03-31T07:59:41;4.43;;;4.03;;
11761;SDS011;5938;47.098;15.474;2023-03-31T08:03:45;5.53;;;5.03;;
11761;SDS011;5938;47.098;15.474;2023-03-31T08:07:50;8.20;;;4.27;;
11761;SDS011;5938;47.098;15.474;2023-03-31T08:11:54;6.17;;;5.30;;
11761;SDS011;5938;47.098;15.474;2023-03-31T08:15:59;8.53;;;5.80;;
11761;SDS011;5938;47.098;15.474;2023-03-31T08:20:02;8.60;;;5.47;;
11761;SDS011;5938;47.098;15.474;2023-03-31T08:24:09;11.40;;;7.17;;
11761;SDS011;5938;47.098;15.474;2023-03-31T08:28:14;9.70;;;6.20;;
11761;SDS011;5938;47.098;15.474;2023-03-31T08:32:19;6.87;;;5.80;;
11761;SDS011;5938;47.098;15.474;2023-03-31T08:36:25;7.77;;;5.40;;
11761;SDS011;5938;47.098;15.474;2023-03-31T08:40:28;5.77;;;4.90;;
11761;SDS011;5938;47.098;15.474;2023-03-31T08:44:34;5.50;;;4.40;;
11761;SDS011;5938;47.098;15.474;2023-03-31T08:48:43;9.83;;;5.13;;
11761;SDS011;5938;47.098;15.474;2023-03-31T08:52:51;3.90;;;3.60;;
11761;SDS011;5938;47.098;15.474;2023-03-31T08:57:00;5.77;;;4.03;;
11761;SDS011;5938;47.098;15.474;2023-03-31T09:01:07;5.53;;;4.20;;
11761;SDS011;5938;47.098;15.474;2023-03-31T09:05:27;4.43;;;3.70;;
11761;SDS011;5938;47.098;15.474;2023-03-31T09:10:02;4.83;;;4.13;;
11761;SDS011;5938;47.098;15.474;2023-03-31T09:14:24;5.33;;;4.00;;
11761;SDS011;5938;47.098;15.474;2023-03-31T09:18:34;6.23;;;3.43;;
11761;SDS011;5938;47.098;15.474;2023-03-31T09:22:40;4.93;;;3.33;;
11761;SDS011;5938;47.098;15.474;2023-03-31T09:26:46;7.33;;;3.47;;
11761;SDS011;5938;47.098;15.474;2023-03-31T09:30:53;3.80;;;3.50;;
11761;SDS011;5938;47.098;15.474;2023-03-31T09:34:58;4.73;;;3.63;;
11761;SDS011;5938;47.098;15.474;2023-03-31T09:39:04;4.17;;;3.53;;
11761;SDS011;5938;47.098;15.474;2023-03-31T09:43:13;5.60;;;2.97;;
11761;SDS011;5938;47.098;15.474;2023-03-31T09:47:24;5.20;;;3.23;;
11761;SDS011;5938;47.098;15.474;2023-03-31T09:51:33;2.97;;;2.47;;
11761;SDS011;5938;47.098;15.474;2023-03-31T09:55:43;3.40;;;2.80;;
11761;SDS011;5938;47.098;15.474;2023-03-31T09:59:50;3.43;;;2.27;;
11761;SDS011;5938;47.098;15.474;2023-03-31T10:03:54;2.43;;;2.23;;
11761;SDS011;5938;47.098;15.474;2023-03-31T10:08:12;2.50;;;1.43;;
11761;SDS011;5938;47.098;15.474;2023-03-31T10:12:24;2.80;;;2.23;;
11761;SDS011;5938;47.098;15.474;2023-03-31T10:16:31;2.70;;;2.03;;
11761;SDS011;5938;47.098;15.474;2023-03-31T10:20:36;2.70;;;2.30;;
11761;SDS011;5938;47.098;15.474;2023-03-31T10:24:41;2.70;;;2.50;;
11761;SDS011;5938;47.098;15.474;2023-03-31T10:28:47;2.80;;;2.10;;
11761;SDS011;5938;47.098;15.474;2023-03-31T10:32:53;3.77;;;2.30;;
11761;SDS011;5938;47.098;15.474;2023-03-31T10:36:57;2.70;;;1.60;;
11761;SDS011;5938;47.098;15.474;2023-03-31T10:41:00;2.57;;;2.30;;
11761;SDS011;5938;47.098;15.474;2023-03-31T10:45:17;4.70;;;2.87;;
11761;SDS011;5938;47.098;15.474;2023-03-31T10:49:39;3.63;;;3.00;;
11761;SDS011;5938;47.098;15.474;2023-03-31T10:53:45;3.80;;;2.20;;
11761;SDS011;5938;47.098;15.474;2023-03-31T10:57:51;2.93;;;2.20;;
11761;SDS011;5938;47.098;15.474;2023-03-31T11:02:08;2.70;;;2.27;;
11761;SDS011;5938;47.098;15.474;2023-03-31T11:06:30;3.63;;;2.30;;
11761;SDS011;5938;47.098;15.474;2023-03-31T11:10:44;2.30;;;2.10;;
11761;SDS011;5938;47.098;15.474;2023-03-31T11:15:09;2.80;;;2.00;;
11761;SDS011;5938;47.098;15.474;2023-03-31T11:19:28;2.20;;;2.03;;
11761;SDS011;5938;47.098;15.474;2023-03-31T11:23:39;5.00;;;2.00;;
11761;SDS011;5938;47.098;15.474;2023-03-31T11:27:56;4.30;;;1.83;;
11761;SDS011;5938;47.098;15.474;2023-03-31T11:37:09;4.10;;;2.33;;
11761;SDS011;5938;47.098;15.474;2023-03-31T11:41:20;2.40;;;1.50;;
11761;SDS011;5938;47.098;15.474;2023-03-31T11:45:31;3.03;;;1.57;;
11761;SDS011;5938;47.098;15.474;2023-03-31T11:49:40;4.57;;;2.73;;
11761;SDS011;5938;47.098;15.474;2023-03-31T11:53:49;1.50;;;1.40;;
11761;SDS011;5938;47.098;15.474;2023-03-31T11:57:58;2.57;;;1.43;;
11761;SDS011;5938;47.098;15.474;2023-03-31T12:02:09;1.73;;;1.60;;
11761;SDS011;5938;47.098;15.474;2023-03-31T12:06:18;1.70;;;1.30;;
11761;SDS011;5938;47.098;15.474;2023-03-31T12:10:30;1.73;;;1.63;;
11761;SDS011;5938;47.098;15.474;2023-03-31T12:14:38;1.33;;;1.23;;
11761;SDS011;5938;47.098;15.474;2023-03-31T12:18:48;1.80;;;1.60;;
11761;SDS011;5938;47.098;15.474;2023-03-31T12:23:03;1.57;;;1.30;;
11761;SDS011;5938;47.098;15.474;2023-03-31T12:27:14;1.60;;;1.43;;
11761;SDS011;5938;47.098;15.474;2023-03-31T12:31:22;2.30;;;2.10;;
11761;SDS011;5938;47.098;15.474;2023-03-31T12:35:30;5.10;;;2.10;;
11761;SDS011;5938;47.098;15.474;2023-03-31T12:39:46;3.10;;;1.97;;
11761;SDS011;5938;47.098;15.474;2023-03-31T12:48:37;3.10;;;2.80;;
11761;SDS011;5938;47.098;15.474;2023-03-31T12:52:54;4.13;;;2.00;;
11761;SDS011;5938;47.098;15.474;2023-03-31T12:57:12;2.47;;;2.10;;
11761;SDS011;5938;47.098;15.474;2023-03-31T13:01:22;2.63;;;2.30;;
11761;SDS011;5938;47.098;15.474;2023-03-31T13:05:45;3.60;;;3.10;;
11761;SDS011;5938;47.098;15.474;2023-03-31T13:09:50;4.43;;;3.00;;
11761;SDS011;5938;47.098;15.474;2023-03-31T13:13:59;3.60;;;2.67;;
11761;SDS011;5938;47.098;15.474;2023-03-31T13:18:06;3.60;;;2.70;;
11761;SDS011;5938;47.098;15.474;2023-03-31T13:22:32;2.60;;;1.80;;
11761;SDS011;5938;47.098;15.474;2023-03-31T13:26:38;1.97;;;1.87;;
11761;SDS011;5938;47.098;15.474;2023-03-31T13:30:43;3.20;;;1.67;;
11761;SDS011;5938;47.098;15.474;2023-03-31T13:35:00;2.17;;;1.97;;
11761;SDS011;5938;47.098;15.474;2023-03-31T13:39:16;2.10;;;1.83;;
11761;SDS011;5938;47.098;15.474;2023-03-31T13:48:41;2.63;;;1.77;;
11761;SDS011;5938;47.098;15.474;2023-03-31T13:52:54;2.73;;;1.70;;
11761;SDS011;5938;47.098;15.474;2023-03-31T13:57:23;1.67;;;1.57;;
11761;SDS011;5938;47.098;15.474;2023-03-31T14:06:35;2.50;;;1.87;;
11761;SDS011;5938;47.098;15.474;2023-03-31T14:10:42;7.27;;;1.97;;
11761;SDS011;5938;47.098;15.474;2023-03-31T14:14:46;5.60;;;2.10;;
11761;SDS011;5938;47.098;15.474;2023-03-31T14:18:50;1.80;;;1.70;;
11761;SDS011;5938;47.098;15.474;2023-03-31T14:23:13;1.50;;;1.40;;
11761;SDS011;5938;47.098;15.474;2023-03-31T14:27:33;2.40;;;1.80;;
11761;SDS011;5938;47.098;15.474;2023-03-31T14:31:49;8.67;;;2.60;;
11761;SDS011;5938;47.098;15.474;2023-03-31T14:36:01;2.43;;;1.80;;
11761;SDS011;5938;47.098;15.474;2023-03-31T14:40:16;3.17;;;2.87;;
11761;SDS011;5938;47.098;15.474;2023-03-31T14:44:23;3.10;;;1.87;;
11761;SDS011;5938;47.098;15.474;2023-03-31T14:48:28;1.73;;;1.40;;
11761;SDS011;5938;47.098;15.474;2023-03-31T14:52:33;2.20;;;2.00;;
11761;SDS011;5938;47.098;15.474;2023-03-31T14:56:37;1.70;;;1.60;;
11761;SDS011;5938;47.098;15.474;2023-03-31T15:00:44;1.90;;;1.70;;
11761;SDS011;5938;47.098;15.474;2023-03-31T15:04:49;3.13;;;1.83;;
11761;SDS011;5938;47.098;15.474;2023-03-31T15:08:54;2.23;;;1.83;;
11761;SDS011;5938;47.098;15.474;2023-03-31T15:13:00;3.50;;;2.60;;
11761;SDS011;5938;47.098;15.474;2023-03-31T15:17:16;3.60;;;2.43;;
11761;SDS011;5938;47.098;15.474;2023-03-31T15:21:23;3.90;;;2.27;;
11761;SDS011;5938;47.098;15.474;2023-03-31T15:25:28;4.27;;;2.30;;
11761;SDS011;5938;47.098;15.474;2023-03-31T15:29:36;4.93;;;3.40;;
11761;SDS011;5938;47.098;15.474;2023-03-31T15:33:44;4.73;;;3.37;;
11761;SDS011;5938;47.098;15.474;2023-03-31T15:37:49;3.97;;;2.30;;
11761;SDS011;5938;47.098;15.474;2023-03-31T15:41:54;5.20;;;2.77;;
11761;SDS011;5938;47.098;15.474;2023-03-31T15:46:00;2.63;;;2.27;;
11761;SDS011;5938;47.098;15.474;2023-03-31T15:50:09;2.07;;;1.90;;
11761;SDS011;5938;47.098;15.474;2023-03-31T15:58:47;2.20;;;2.00;;
11761;SDS011;5938;47.098;15.474;2023-03-31T16:02:56;5.57;;;2.40;;
11761;SDS011;5938;47.098;15.474;2023-03-31T16:07:03;3.40;;;2.60;;
11761;SDS011;5938;47.098;15.474;2023-03-31T16:11:10;2.30;;;2.10;;
11761;SDS011;5938;47.098;15.474;2023-03-31T16:15:17;4.40;;;1.93;;
11761;SDS011;5938;47.098;15.474;2023-03-31T16:19:26;2.87;;;1.90;;
11761;SDS011;5938;47.098;15.474;2023-03-31T16:23:35;7.00;;;2.90;;
11761;SDS011;5938;47.098;15.474;2023-03-31T16:27:42;2.00;;;1.60;;
11761;SDS011;5938;47.098;15.474;2023-03-31T16:31:48;2.10;;;1.90;;
11761;SDS011;5938;47.098;15.474;2023-03-31T16:35:52;5.00;;;2.07;;
11761;SDS011;5938;47.098;15.474;2023-03-31T16:39:59;2.90;;;2.00;;
11761;SDS011;5938;47.098;15.474;2023-03-31T16:44:05;2.73;;;2.10;;
11761;SDS011;5938;47.098;15.474;2023-03-31T16:48:10;2.20;;;1.77;;
11761;SDS011;5938;47.098;15.474;2023-03-31T16:52:33;3.97;;;3.67;;
11761;SDS011;5938;47.098;15.474;2023-03-31T16:56:39;7.10;;;4.97;;
11761;SDS011;5938;47.098;15.474;2023-03-31T17:00:43;3.40;;;2.40;;
11761;SDS011;5938;47.098;15.474;2023-03-31T17:04:47;5.57;;;4.20;;
11761;SDS011;5938;47.098;15.474;2023-03-31T17:08:57;2.63;;;1.43;;
11761;SDS011;5938;47.098;15.474;2023-03-31T17:13:03;1.23;;;0.70;;
11761;SDS011;5938;47.098;15.474;2023-03-31T17:17:08;1.37;;;0.80;;
11761;SDS011;5938;47.098;15.474;2023-03-31T17:21:15;0.97;;;0.73;;
11761;SDS011;5938;47.098;15.474;2023-03-31T17:25:19;7.23;;;4.00;;
11761;SDS011;5938;47.098;15.474;2023-03-31T17:29:25;2.30;;;1.20;;
11761;SDS011;5938;47.098;15.474;2023-03-31T17:33:29;4.70;;;1.90;;
11761;SDS011;5938;47.098;15.474;2023-03-31T17:37:33;1.53;;;1.10;;
11761;SDS011;5938;47.098;15.474;2023-03-31T17:41:37;3.17;;;1.13;;
11761;SDS011;5938;47.098;15.474;2023-03-31T17:45:45;1.23;;;1.13;;
11761;SDS011;5938;47.098;15.474;2023-03-31T17:49:49;3.60;;;2.20;;
11761;SDS011;5938;47.098;15.474;2023-03-31T17:53:53;0.70;;;0.70;;
11761;SDS011;5938;47.098;15.474;2023-03-31T17:57:59;1.23;;;0.73;;
11761;SDS011;5938;47.098;15.474;2023-03-31T18:02:06;2.77;;;1.37;;
11761;SDS011;5938;47.098;15.474;2023-03-31T18:06:12;2.47;;;1.97;;
11761;SDS011;5938;47.098;15.474;2023-03-31T18:10:18;3.23;;;1.53;;
11761;SDS011;5938;47.098;15.474;2023-03-31T18:14:24;1.20;;;1.10;;
11761;SDS011;5938;47.098;15.474;2023-03-31T18:18:32;1.97;;;1.67;;
11761;SDS011;5938;47.098;15.474;2023-03-31T18:22:39;4.73;;;1.87;;
11761;SDS011;5938;47.098;15.474;2023-03-31T18:26:43;4.17;;;3.00;;
11761;SDS011;5938;47.098;15.474;2023-03-31T18:30:47;7.83;;;3.17;;
11761;SDS011;5938;47.098;15.474;2023-03-31T18:34:53;6.53;;;3.53;;
11761;SDS011;5938;47.098;15.474;2023-03-31T18:38:59;3.23;;;2.47;;
11761;SDS011;5938;47.098;15.474;2023-03-31T18:43:05;3.30;;;3.10;;
11761;SDS011;5938;47.098;15.474;2023-03-31T18:47:09;3.20;;;2.90;;
11761;SDS011;5938;47.098;15.474;2023-03-31T18:51:21;3.67;;;2.87;;
11761;SDS011;5938;47.098;15.474;2023-03-31T18:55:28;4.50;;;2.73;;
11761;SDS011;5938;47.098;15.474;2023-03-31T18:59:33;3.63;;;2.40;;
11761;SDS011;5938;47.098;15.474;2023-03-31T19:03:38;1.93;;;1.73;;
11761;SDS011;5938;47.098;15.474;2023-03-31T19:07:46;2.33;;;1.87;;
11761;SDS011;5938;47.098;15.474;2023-03-31T19:11:52;2.03;;;1.83;;
11761;SDS011;5938;47.098;15.474;2023-03-31T19:16:00;2.10;;;1.93;;
11761;SDS011;5938;47.098;15.474;2023-03-31T19:20:08;3.03;;;2.30;;
11761;SDS011;5938;47.098;15.474;2023-03-31T19:24:19;3.37;;;2.50;;
11761;SDS011;5938;47.098;15.474;2023-03-31T19:28:26;3.20;;;2.33;;
11761;SDS011;5938;47.098;15.474;2023-03-31T19:32:37;3.97;;;2.57;;
11761;SDS011;5938;47.098;15.474;2023-03-31T19:36:52;3.80;;;2.70;;
11761;SDS011;5938;47.098;15.474;2023-03-31T19:41:00;3.37;;;2.87;;
11761;SDS011;5938;47.098;15.474;2023-03-31T19:45:05;3.70;;;3.40;;
11761;SDS011;5938;47.098;15.474;2023-03-31T19:49:12;4.90;;;3.70;;
11761;SDS011;5938;47.098;15.474;2023-03-31T19:53:17;3.03;;;2.80;;
11761;SDS011;5938;47.098;15.474;2023-03-31T19:57:25;7.43;;;5.10;;
11761;SDS011;5938;47.098;15.474;2023-03-31T20:05:44;6.50;;;4.83;;
11761;SDS011;5938;47.098;15.474;2023-03-31T20:09:56;4.90;;;4.37;;
11761;SDS011;5938;47.098;15.474;2023-03-31T20:14:04;4.93;;;4.43;;
11761;SDS011;5938;47.098;15.474;2023-03-31T20:18:09;3.87;;;3.57;;
11761;SDS011;5938;47.098;15.474;2023-03-31T20:22:16;5.30;;;4.90;;
11761;SDS011;5938;47.098;15.474;2023-03-31T20:26:24;6.50;;;4.30;;
11761;SDS011;5938;47.098;15.474;2023-03-31T20:30:33;4.73;;;3.53;;
11761;SDS011;5938;47.098;15.474;2023-03-31T20:34:40;3.63;;;3.33;;
11761;SDS011;5938;47.098;15.474;2023-03-31T20:38:45;4.30;;;3.90;;
11761;SDS011;5938;47.098;15.474;2023-03-31T20:42:52;5.33;;;4.43;;
11761;SDS011;5938;47.098;15.474;2023-03-31T20:46:57;4.33;;;3.93;;
11761;SDS011;5938;47.098;15.474;2023-03-31T20:51:02;4.67;;;3.80;;
11761;SDS011;5938;47.098;15.474;2023-03-31T20:55:06;3.77;;;2.80;;
11761;SDS011;5938;47.098;15.474;2023-03-31T20:59:12;3.80;;;3.40;;
11761;SDS011;5938;47.098;15.474;2023-03-31T21:03:17;4.17;;;3.73;;
11761;SDS011;5938;47.098;15.474;2023-03-31T21:07:21;3.50;;;3.20;;
11761;SDS011;5938;47.098;15.474;2023-03-31T21:11:24;3.87;;;3.53;;
11761;SDS011;5938;47.098;15.474;2023-03-31T21:15:29;3.47;;;3.00;;
11761;SDS011;5938;47.098;15.474;2023-03-31T21:19:34;4.00;;;2.87;;
11761;SDS011;5938;47.098;15.474;2023-03-31T21:23:39;3.23;;;2.93;;
11761;SDS011;5938;47.098;15.474;2023-03-31T21:27:42;5.60;;;3.40;;
11761;SDS011;5938;47.098;15.474;2023-03-31T21:31:47;5.03;;;3.20;;
11761;SDS011;5938;47.098;15.474;2023-03-31T21:35:52;3.90;;;3.53;;
11761;SDS011;5938;47.098;15.474;2023-03-31T21:39:56;4.07;;;3.67;;
11761;SDS011;5938;47.098;15.474;2023-03-31T21:44:00;3.10;;;2.80;;
11761;SDS011;5938;47.098;15.474;2023-03-31T21:48:04;4.03;;;3.20;;
11761;SDS011;5938;47.098;15.474;2023-03-31T21:52:11;4.70;;;2.83;;
11761;SDS011;5938;47.098;15.474;2023-03-31T21:56:14;4.03;;;3.03;;
11761;SDS011;5938;47.098;15.474;2023-03-31T22:00:18;3.50;;;2.30;;
11761;SDS011;5938;47.098;15.474;2023-03-31T22:04:21;2.97;;;2.53;;
11761;SDS011;5938;47.098;15.474;2023-03-31T22:08:26;3.40;;;3.10;;
11761;SDS011;5938;47.098;15.474;2023-03-31T22:12:31;3.33;;;2.40;;
11761;SDS011;5938;47.098;15.474;2023-03-31T22:16:35;3.30;;;3.00;;
11761;SDS011;5938;47.098;15.474;2023-03-31T22:20:38;3.33;;;2.90;;
11761;SDS011;5938;47.098;15.474;2023-03-31T22:24:43;3.20;;;2.90;;
11761;SDS011;5938;47.098;15.474;2023-03-31T22:28:48;3.93;;;3.40;;
11761;SDS011;5938;47.098;15.474;2023-03-31T22:32:52;3.23;;;2.83;;
11761;SDS011;5938;47.098;15.474;2023-03-31T22:36:55;4.30;;;3.90;;
11761;SDS011;5938;47.098;15.474;2023-03-31T22:41:01;4.53;;;3.20;;
11761;SDS011;5938;47.098;15.474;2023-03-31T22:45:04;6.03;;;4.63;;
11761;SDS011;5938;47.098;15.474;2023-03-31T22:49:08;4.30;;;3.90;;
11761;SDS011;5938;47.098;15.474;2023-03-31T22:53:11;4.10;;;3.70;;
11761;SDS011;5938;47.098;15.474;2023-03-31T22:57:16;5.73;;;4.00;;
11761;SDS011;5938;47.098;15.474;2023-03-31T23:01:19;3.87;;;3.50;;
11761;SDS011;5938;47.098;15.474;2023-03-31T23:05:23;5.60;;;3.87;;
11761;SDS011;5938;47.098;15.474;2023-03-31T23:09:27;5.50;;;3.70;;
11761;SDS011;5938;47.098;15.474;2023-03-31T23:13:32;4.37;;;3.50;;
11761;SDS011;5938;47.098;15.474;2023-03-31T23:17:36;5.80;;;4.77;;
11761;SDS011;5938;47.098;15.474;2023-03-31T23:21:39;4.30;;;3.87;;
11761;SDS011;5938;47.098;15.474;2023-03-31T23:25:43;5.10;;;3.77;;
11761;SDS011;5938;47.098;15.474;2023-03-31T23:29:48;7.60;;;3.77;;
11761;SDS011;5938;47.098;15.474;2023-03-31T23:33:51;5.83;;;4.30;;
11761;SDS011;5938;47.098;15.474;2023-03-31T23:37:55;3.53;;;3.17;;
11761;SDS011;5938;47.098;15.474;2023-03-31T23:41:58;6.53;;;3.90;;
11761;SDS011;5938;47.098;15.474;2023-03-31T23:46:03;5.20;;;3.27;;
11761;SDS011;5938;47.098;15.474;2023-03-31T23:50:08;4.37;;;3.97;;
11761;SDS011;5938;47.098;15.474;2023-03-31T23:54:12;4.40;;;3.60;;
11761;SDS011;5938;47.098;15.474;2023-03-31T23:58:22;4.03;;;3.17;;
